首页
METAR-TAF:

METAR-TAF

机场 :

Kaneohe, 夏威夷州, 美国

纬度: 21-27-14N, 经度: 157-45-56W, 海拔: 5米

当前天气观测

该预报发布于55分钟前的12:57 UTC
风速5节,风向东转东北
温度 26°C
湿度 61%
气压 1016 hPa
能見度: 16.1公里
少量云层高于4000英尺
散云层高于5000英尺

METAR: PHNG 181257Z AUTO 07005KT 10SM FEW040 SCT050 26/18 A3000 RMK AO2 SLP153 T02610183

时间: 03:52 (13:52 UTC)

预报

预报有效从18日的 09点(UTC)到 19日的 09点(UTC)
风速10节,风向东转东北
能见度10公里或以上
少量云层高于2500英尺
散云层高于3000英尺
多云层高于4000英尺
短暂存在
从 18日的 09点(UTC)到 18日的 15点(UTC)
能見度: 8000
散云层高于2500英尺
多云层高于4000英尺
多云层高于5000英尺
小阵雨
从 18日的 1800点(UTC)
风速10节,风向东转东北,有时为18节阵风
能见度10公里或以上
少量云层高于2000英尺
散云层高于3000英尺
散云层高于4500英尺
短暂存在
从 18日的 21点(UTC)到 19日的 03点(UTC)
风速12节,风向东转东北
能見度: 0955
散云层高于2500英尺
多云层高于4000英尺

TAF: PHNG 1809/1909 07010KT 9999 FEW025 SCT030 BKN040 QNH3001INS TEMPO 1809/1815 8000 -SHRA SCT025 BKN040 BKN050 FM181800 07010G18KT 9999 FEW020 SCT030 SCT045 QNH3000INS TEMPO 1821/1903 07012KT SCT025 BKN040 T26/1816Z T31/1823Z AMD 0955

超过4000个机场的气象观测和天气预报(METAR&TAF报告)。

可查询的气象台以黄色和红色小点在地图上表示。

将鼠标移到小点上方,可查看气象台名称。

然后点击查看天气观测和预报。

如需切换地图:点击带黑十字的绿色按钮放大地图;点击带横线的绿色按钮缩小地图;或者点击绿色箭头查看邻近地区的地图。


METAR-TAF: